createdAt,value
2019-01-16T00:00:43.155Z,3.40
2019-01-16T00:03:25.760Z,3.00
2019-01-16T00:06:20.119Z,3.50
2019-01-16T00:09:06.704Z,3.00
2019-01-16T00:12:01.079Z,3.27
2019-01-16T00:14:47.705Z,3.40
2019-01-16T00:17:35.765Z,3.33
2019-01-16T00:20:25.692Z,3.10
2019-01-16T00:23:05.649Z,3.20
2019-01-16T00:25:53.532Z,3.10
2019-01-16T00:28:46.885Z,3.50
2019-01-16T00:31:37.841Z,3.20
2019-01-16T00:34:34.823Z,3.10
2019-01-16T00:37:31.729Z,3.60
2019-01-16T00:40:18.922Z,4.07
2019-01-16T00:43:04.108Z,3.87
2019-01-16T00:46:07.257Z,3.37
2019-01-16T00:49:10.026Z,3.70
2019-01-16T00:51:59.069Z,4.07
2019-01-16T00:54:38.600Z,4.70
2019-01-16T00:57:28.115Z,4.00
2019-01-16T01:00:14.686Z,4.00
2019-01-16T01:03:11.706Z,4.20
2019-01-16T01:05:58.151Z,4.23
2019-01-16T01:08:41.064Z,4.30
2019-01-16T01:11:31.857Z,4.17
2019-01-16T01:14:09.912Z,4.47
2019-01-16T01:16:57.311Z,4.13
2019-01-16T01:19:53.138Z,4.50
2019-01-16T01:22:41.084Z,4.47
2019-01-16T01:25:27.701Z,4.40
2019-01-16T01:28:31.113Z,4.27
2019-01-16T01:31:15.074Z,4.77
2019-01-16T01:34:11.231Z,5.10
2019-01-16T01:37:00.095Z,4.37
2019-01-16T01:39:53.865Z,4.30
2019-01-16T01:43:03.093Z,4.97
2019-01-16T01:45:54.136Z,4.77
2019-01-16T01:48:50.660Z,4.77
2019-01-16T01:51:38.081Z,4.53
2019-01-16T01:54:25.029Z,4.77
2019-01-16T01:57:12.920Z,4.90
2019-01-16T01:59:53.507Z,5.03
2019-01-16T02:02:48.038Z,5.07
2019-01-16T02:05:37.762Z,4.77
2019-01-16T02:08:22.873Z,5.13
2019-01-16T02:11:22.739Z,4.80
2019-01-16T02:14:10.718Z,5.10
2019-01-16T02:17:07.560Z,5.60
2019-01-16T02:19:58.333Z,5.40
2019-01-16T02:23:04.302Z,5.17
2019-01-16T02:26:07.058Z,5.50
2019-01-16T02:28:57.612Z,5.40
2019-01-16T02:31:44.329Z,5.87
2019-01-16T02:34:31.855Z,6.10
2019-01-16T02:37:08.495Z,5.23
2019-01-16T02:39:54.953Z,5.50
2019-01-16T02:42:49.346Z,5.53
2019-01-16T02:45:35.669Z,5.33
2019-01-16T02:48:29.508Z,5.57
2019-01-16T02:51:17.554Z,5.13
2019-01-16T02:54:03.815Z,5.23
2019-01-16T02:56:59.874Z,5.30
2019-01-16T02:59:45.310Z,5.23
2019-01-16T03:02:33.238Z,5.60
2019-01-16T03:05:11.994Z,5.23
2019-01-16T03:07:55.825Z,5.80
2019-01-16T03:10:46.696Z,6.23
2019-01-16T03:13:43.500Z,5.10
2019-01-16T03:16:43.339Z,6.20
2019-01-16T03:19:29.082Z,5.20
2019-01-16T03:22:32.137Z,5.90
2019-01-16T03:25:23.193Z,5.27
2019-01-16T03:28:26.058Z,5.53
2019-01-16T03:31:12.470Z,5.83
2019-01-16T03:34:03.708Z,5.17
2019-01-16T03:36:48.137Z,5.43
2019-01-16T03:39:27.228Z,5.53
2019-01-16T03:42:15.185Z,5.83
2019-01-16T03:45:19.990Z,5.53
2019-01-16T03:48:02.297Z,5.53
2019-01-16T03:50:50.174Z,6.13
2019-01-16T03:53:40.976Z,5.60
2019-01-16T03:56:30.695Z,5.70
2019-01-16T03:59:30.437Z,5.33
2019-01-16T04:02:16.919Z,4.90
2019-01-16T04:05:23.103Z,5.20
2019-01-16T04:08:12.865Z,5.67
2019-01-16T04:10:59.981Z,4.97
2019-01-16T04:13:59.853Z,4.70
2019-01-16T04:16:47.549Z,5.17
2019-01-16T04:19:33.480Z,4.73
2019-01-16T04:22:26.597Z,4.63
2019-01-16T04:25:10.245Z,4.63
2019-01-16T04:28:02.560Z,5.07
2019-01-16T04:30:52.138Z,4.80
2019-01-16T04:33:38.873Z,4.80
2019-01-16T04:36:40.077Z,4.37
2019-01-16T04:39:46.329Z,5.27
2019-01-16T04:42:52.313Z,4.30
2019-01-16T04:45:46.139Z,5.27
2019-01-16T04:48:48.956Z,5.07
2019-01-16T04:51:35.458Z,4.73
2019-01-16T04:54:20.862Z,5.10
2019-01-16T04:57:14.557Z,4.80
2019-01-16T05:00:07.865Z,4.60
2019-01-16T05:02:59.189Z,4.73
2019-01-16T05:05:52.243Z,4.73
2019-01-16T05:08:38.685Z,4.40
2019-01-16T05:11:35.617Z,4.50
2019-01-16T05:14:21.341Z,4.63
2019-01-16T05:17:04.172Z,5.00
2019-01-16T05:19:58.015Z,4.97
2019-01-16T05:22:37.729Z,4.57
2019-01-16T05:25:25.722Z,4.57
2019-01-16T05:28:07.809Z,4.30
2019-01-16T05:31:01.342Z,4.43
2019-01-16T05:33:59.348Z,4.20
2019-01-16T05:36:45.742Z,4.73
2019-01-16T05:39:32.300Z,4.73
2019-01-16T05:42:35.502Z,4.83
2019-01-16T05:45:35.824Z,4.87
2019-01-16T05:48:25.330Z,4.37
2019-01-16T05:51:19.566Z,4.93
2019-01-16T05:54:05.924Z,5.30
2019-01-16T05:56:56.601Z,5.23
2019-01-16T05:59:43.221Z,5.60
2019-01-16T06:02:29.912Z,5.00
2019-01-16T06:05:15.765Z,5.27
2019-01-16T06:08:03.235Z,5.07
2019-01-16T06:10:59.962Z,5.90
2019-01-16T06:14:05.914Z,5.67
2019-01-16T06:16:52.911Z,5.97
2019-01-16T06:19:43.318Z,5.77
2019-01-16T06:22:33.010Z,5.53
2019-01-16T06:25:23.667Z,5.57
2019-01-16T06:28:09.478Z,5.60
2019-01-16T06:30:55.928Z,5.67
2019-01-16T06:33:50.279Z,5.50
2019-01-16T06:36:36.836Z,6.33
2019-01-16T06:39:30.031Z,6.07
2019-01-16T06:42:11.389Z,6.00
2019-01-16T06:44:57.675Z,5.97
2019-01-16T06:47:46.318Z,5.67
2019-01-16T06:50:23.569Z,5.47
2019-01-16T06:53:02.842Z,6.57
2019-01-16T06:55:50.601Z,6.07
2019-01-16T06:58:41.606Z,6.53
2019-01-16T07:01:32.314Z,6.80
2019-01-16T07:04:26.119Z,6.53
2019-01-16T07:07:18.502Z,7.50
2019-01-16T07:10:00.955Z,12.00
2019-01-16T07:13:03.917Z,7.33
2019-01-16T07:15:43.778Z,10.08
2019-01-16T07:18:30.193Z,9.87
2019-01-16T07:21:24.300Z,6.53
2019-01-16T07:24:23.315Z,5.93
2019-01-16T07:27:04.878Z,7.00
2019-01-16T07:29:51.904Z,7.10
2019-01-16T07:32:38.585Z,6.33
2019-01-16T07:35:26.601Z,7.90
2019-01-16T07:38:13.108Z,7.07
2019-01-16T07:41:01.183Z,5.73
2019-01-16T07:44:01.587Z,5.77
2019-01-16T07:46:51.188Z,5.43
2019-01-16T07:49:46.065Z,5.77
2019-01-16T07:52:32.800Z,4.80
2019-01-16T07:55:30.302Z,5.47
2019-01-16T07:58:11.361Z,5.00
2019-01-16T08:01:05.441Z,5.60
2019-01-16T08:03:49.803Z,4.93
2019-01-16T08:06:43.680Z,5.70
2019-01-16T08:09:37.788Z,5.40
2019-01-16T08:12:28.893Z,4.70
2019-01-16T08:15:32.041Z,4.77
2019-01-16T08:18:24.280Z,4.97
2019-01-16T08:21:31.505Z,4.77
2019-01-16T08:24:23.826Z,4.57
2019-01-16T08:27:16.610Z,4.20
2019-01-16T08:30:01.021Z,4.30
2019-01-16T08:32:50.714Z,4.10
2019-01-16T08:35:55.953Z,4.10
2019-01-16T08:38:56.125Z,4.07
2019-01-16T08:42:02.317Z,4.03
2019-01-16T08:44:49.142Z,3.77
2019-01-16T08:47:50.866Z,3.80
2019-01-16T08:50:44.843Z,3.83
2019-01-16T08:53:27.856Z,3.80
2019-01-16T08:56:16.493Z,3.27
2019-01-16T08:59:03.102Z,3.87
2019-01-16T09:01:49.872Z,3.87
2019-01-16T09:04:52.994Z,3.30
2019-01-16T09:07:44.125Z,3.80
2019-01-16T09:10:32.389Z,3.43
2019-01-16T09:13:18.930Z,3.70
2019-01-16T09:16:05.717Z,3.57
2019-01-16T09:18:56.762Z,4.17
2019-01-16T09:21:44.742Z,3.60
2019-01-16T09:24:24.290Z,3.97
2019-01-16T09:27:18.370Z,3.47
2019-01-16T09:30:15.498Z,4.20
2019-01-16T09:33:08.328Z,4.30
2019-01-16T09:35:56.406Z,5.03
2019-01-16T09:38:44.637Z,4.47
2019-01-16T09:41:31.707Z,4.07
2019-01-16T09:44:37.790Z,4.17
2019-01-16T09:47:23.948Z,4.70
2019-01-16T09:50:28.688Z,4.90
2019-01-16T09:53:05.117Z,4.87
2019-01-16T09:56:08.190Z,4.73
2019-01-16T09:58:54.815Z,5.23
2019-01-16T10:01:41.692Z,4.63
2019-01-16T10:04:27.924Z,5.40
2019-01-16T10:07:14.581Z,4.93
2019-01-16T10:09:57.989Z,4.80
2019-01-16T10:13:01.072Z,5.10
2019-01-16T10:15:56.099Z,4.90
2019-01-16T10:18:42.480Z,5.00
2019-01-16T10:21:42.634Z,5.17
2019-01-16T10:24:34.213Z,4.97
2019-01-16T10:27:27.093Z,4.73
2019-01-16T10:30:18.133Z,5.27
2019-01-16T10:33:12.163Z,4.80
2019-01-16T10:36:08.125Z,4.93
2019-01-16T10:39:08.330Z,4.70
2019-01-16T10:41:49.657Z,4.13
2019-01-16T10:44:26.743Z,4.83
2019-01-16T10:47:08.412Z,4.43
2019-01-16T10:49:59.708Z,5.10
2019-01-16T10:53:05.969Z,4.27
2019-01-16T10:55:56.998Z,4.37
2019-01-16T10:58:46.344Z,4.90
2019-01-16T11:01:46.830Z,4.83
2019-01-16T11:04:37.671Z,4.90
2019-01-16T11:07:31.486Z,4.20
2019-01-16T11:10:28.318Z,4.23
2019-01-16T11:13:14.709Z,4.57
2019-01-16T11:15:54.782Z,4.50
2019-01-16T11:18:50.258Z,4.80
2019-01-16T11:21:36.648Z,4.87
2019-01-16T11:24:42.865Z,4.97
2019-01-16T11:27:33.824Z,4.90
2019-01-16T11:30:20.237Z,4.77
2019-01-16T11:33:08.571Z,4.17
2019-01-16T11:35:59.357Z,4.50
2019-01-16T11:38:45.933Z,4.70
2019-01-16T11:41:38.732Z,4.33
2019-01-16T11:44:23.874Z,4.30
2019-01-16T11:47:10.393Z,4.20
2019-01-16T11:50:01.474Z,4.10
2019-01-16T11:52:40.324Z,4.40
2019-01-16T11:55:26.757Z,4.90
2019-01-16T11:58:09.889Z,4.23
2019-01-16T12:00:59.400Z,4.10
2019-01-16T12:03:53.277Z,3.97
2019-01-16T12:06:40.053Z,4.20
2019-01-16T12:09:36.370Z,4.00
2019-01-16T12:12:33.872Z,4.30
2019-01-16T12:15:20.331Z,14.07
2019-01-16T12:18:18.658Z,5.83
2019-01-16T12:21:26.327Z,4.10
2019-01-16T12:24:06.621Z,7.80
2019-01-16T12:26:53.954Z,4.60
2019-01-16T12:29:47.991Z,4.50
2019-01-16T12:32:26.509Z,4.37
2019-01-16T12:35:08.968Z,4.90
2019-01-16T12:38:02.813Z,4.63
2019-01-16T12:40:49.845Z,5.00
2019-01-16T12:43:36.529Z,8.10
2019-01-16T12:46:25.949Z,4.23
2019-01-16T12:49:12.743Z,4.80
2019-01-16T12:51:53.906Z,4.27
2019-01-16T12:54:36.564Z,4.57
2019-01-16T12:57:17.357Z,4.87
2019-01-16T13:00:17.586Z,4.40
2019-01-16T13:02:58.122Z,4.80
2019-01-16T13:05:58.048Z,4.93
2019-01-16T13:08:48.377Z,4.67
2019-01-16T13:11:36.521Z,5.30
2019-01-16T13:14:29.971Z,5.77
2019-01-16T13:17:17.109Z,4.93
2019-01-16T13:20:03.693Z,4.80
2019-01-16T13:23:12.654Z,5.23
2019-01-16T13:25:58.978Z,4.77
2019-01-16T13:29:05.274Z,5.13
2019-01-16T13:31:55.897Z,5.13
2019-01-16T13:34:42.504Z,6.77
2019-01-16T13:37:28.208Z,5.10
2019-01-16T13:40:08.906Z,5.20
2019-01-16T13:42:48.194Z,4.63
2019-01-16T13:45:49.516Z,5.10
2019-01-16T13:48:28.912Z,5.43
2019-01-16T13:51:15.534Z,4.47
2019-01-16T13:53:58.467Z,4.87
2019-01-16T13:56:49.205Z,4.83
2019-01-16T13:59:52.157Z,4.73
2019-01-16T14:02:40.895Z,4.40
2019-01-16T14:05:31.777Z,4.40
2019-01-16T14:08:28.702Z,4.77
2019-01-16T14:11:23.251Z,4.83
2019-01-16T14:14:26.358Z,3.90
2019-01-16T14:17:12.774Z,4.03
2019-01-16T14:20:12.609Z,3.50
2019-01-16T14:23:06.420Z,3.70
2019-01-16T14:25:51.795Z,3.50
2019-01-16T14:28:42.732Z,4.10
2019-01-16T14:31:49.069Z,3.70
2019-01-16T14:34:35.769Z,3.90
2019-01-16T14:37:27.703Z,3.47
2019-01-16T14:40:17.426Z,3.60
2019-01-16T14:43:08.722Z,4.27
2019-01-16T14:45:59.701Z,4.60
2019-01-16T14:48:53.528Z,4.77
2019-01-16T14:51:42.970Z,4.50
2019-01-16T14:54:35.705Z,5.13
2019-01-16T14:57:23.949Z,4.90
2019-01-16T15:00:06.554Z,7.50
2019-01-16T15:03:01.747Z,9.53
2019-01-16T15:05:49.721Z,4.63
2019-01-16T15:08:52.729Z,16.00
2019-01-16T15:11:43.717Z,9.53
2019-01-16T15:14:34.834Z,10.60
2019-01-16T15:17:18.411Z,7.20
2019-01-16T15:20:02.678Z,9.57
2019-01-16T15:22:49.396Z,5.97
2019-01-16T15:25:36.094Z,6.37
2019-01-16T15:28:42.307Z,7.87
2019-01-16T15:31:33.027Z,5.63
2019-01-16T15:34:19.698Z,4.60
2019-01-16T15:37:06.535Z,9.73
2019-01-16T15:40:00.345Z,6.33
2019-01-16T15:42:48.098Z,14.20
2019-01-16T15:45:37.649Z,7.20
2019-01-16T15:48:24.347Z,8.27
2019-01-16T15:51:11.049Z,9.17
2019-01-16T15:54:05.120Z,7.50
2019-01-16T15:56:58.902Z,6.73
2019-01-16T15:59:48.618Z,8.00
2019-01-16T16:02:25.721Z,6.93
2019-01-16T16:05:14.409Z,9.43
2019-01-16T16:07:49.666Z,8.97
2019-01-16T16:10:40.794Z,7.07
2019-01-16T16:13:31.119Z,9.57
2019-01-16T16:16:23.368Z,7.70
2019-01-16T16:19:01.546Z,8.17
2019-01-16T16:22:08.414Z,7.87
2019-01-16T16:24:54.832Z,7.07
2019-01-16T16:27:47.125Z,8.40
2019-01-16T16:30:33.137Z,9.10
2019-01-16T16:33:33.174Z,7.90
2019-01-16T16:36:20.478Z,7.23
2019-01-16T16:39:11.533Z,8.67
2019-01-16T16:42:03.358Z,7.60
2019-01-16T16:44:51.092Z,10.47
2019-01-16T16:47:46.463Z,8.80
2019-01-16T16:50:46.583Z,9.40
2019-01-16T16:53:37.811Z,10.30
2019-01-16T16:56:35.025Z,10.27
2019-01-16T16:59:24.305Z,8.90
2019-01-16T17:02:23.756Z,10.13
2019-01-16T17:05:10.748Z,8.33
2019-01-16T17:08:00.803Z,8.23
2019-01-16T17:10:49.318Z,8.67
2019-01-16T17:13:37.037Z,8.23
2019-01-16T17:16:38.752Z,8.90
2019-01-16T17:19:26.652Z,9.90
2019-01-16T17:22:21.320Z,9.37
2019-01-16T17:25:18.465Z,9.63
2019-01-16T17:28:06.437Z,8.30
2019-01-16T17:31:20.241Z,8.53
2019-01-16T17:37:45.501Z,8.40
2019-01-16T17:40:45.340Z,7.80
2019-01-16T17:43:27.141Z,8.53
2019-01-16T17:46:40.292Z,8.63
2019-01-16T17:49:29.037Z,8.17
2019-01-16T17:52:19.014Z,8.17
2019-01-16T17:55:03.199Z,8.63
2019-01-16T17:58:04.094Z,8.50
2019-01-16T18:01:05.103Z,8.93
2019-01-16T18:03:52.537Z,8.13
2019-01-16T18:06:46.768Z,7.43
2019-01-16T18:09:49.322Z,7.73
2019-01-16T18:12:59.234Z,7.40
2019-01-16T18:15:48.384Z,7.23
2019-01-16T18:18:37.680Z,7.13
2019-01-16T18:21:28.630Z,7.10
2019-01-16T18:24:16.925Z,7.60
2019-01-16T18:27:14.327Z,7.67
2019-01-16T18:30:01.928Z,7.80
2019-01-16T18:32:57.031Z,10.10
2019-01-16T18:35:45.967Z,8.87
2019-01-16T18:38:36.696Z,7.90
2019-01-16T18:41:44.600Z,7.70
2019-01-16T18:44:35.124Z,8.20
2019-01-16T18:47:22.166Z,8.10
2019-01-16T18:50:13.096Z,8.47
2019-01-16T18:52:52.900Z,8.03
2019-01-16T18:55:55.880Z,7.73
2019-01-16T18:58:46.699Z,7.17
2019-01-16T19:01:34.326Z,8.87
2019-01-16T19:04:31.647Z,8.00
2019-01-16T19:07:18.410Z,10.60
2019-01-16T19:10:09.148Z,10.40
2019-01-16T19:13:10.677Z,7.67
2019-01-16T19:15:56.934Z,15.33
2019-01-16T19:18:59.806Z,12.10
2019-01-16T19:21:37.625Z,7.37
2019-01-16T19:24:25.855Z,8.97
2019-01-16T19:27:12.498Z,7.63
2019-01-16T19:30:03.574Z,6.97
2019-01-16T19:32:50.141Z,8.77
2019-01-16T19:35:28.285Z,7.40
2019-01-16T19:38:22.397Z,9.20
2019-01-16T19:41:09.469Z,7.33
2019-01-16T19:43:57.873Z,6.73
2019-01-16T19:46:43.787Z,8.33
2019-01-16T19:49:39.300Z,8.50
2019-01-16T19:52:41.839Z,8.53
2019-01-16T19:55:36.777Z,10.53
2019-01-16T19:58:25.065Z,7.57
2019-01-16T20:01:04.009Z,9.23
2019-01-16T20:03:56.328Z,8.83
2019-01-16T20:06:48.031Z,8.93
2019-01-16T20:09:56.181Z,8.20
2019-01-16T20:12:42.090Z,8.80
2019-01-16T20:15:33.229Z,15.53
2019-01-16T20:18:21.107Z,9.53
2019-01-16T20:21:07.907Z,10.73
2019-01-16T20:24:08.461Z,9.17
2019-01-16T20:27:10.177Z,9.00
2019-01-16T20:29:57.789Z,8.37
2019-01-16T20:32:59.059Z,8.43
2019-01-16T20:36:02.576Z,10.40
2019-01-16T20:38:42.419Z,10.67
2019-01-16T20:41:46.469Z,9.83
2019-01-16T20:44:37.994Z,9.27
2019-01-16T20:47:28.484Z,9.33
2019-01-16T20:50:23.013Z,9.43
2019-01-16T20:53:01.976Z,9.30
2019-01-16T20:55:50.310Z,8.93
2019-01-16T20:58:50.780Z,8.63
2019-01-16T21:01:48.724Z,9.07
2019-01-16T21:04:46.339Z,9.07
2019-01-16T21:07:26.916Z,11.07
2019-01-16T21:10:27.566Z,9.50
2019-01-16T21:13:18.726Z,10.47
2019-01-16T21:16:00.650Z,9.90
2019-01-16T21:18:57.704Z,9.63
2019-01-16T21:21:44.417Z,10.23
2019-01-16T21:24:30.992Z,9.77
2019-01-16T21:27:16.934Z,10.87
2019-01-16T21:30:04.645Z,10.20
2019-01-16T21:32:51.112Z,10.30
2019-01-16T21:35:34.208Z,9.90
2019-01-16T21:38:14.499Z,9.93
2019-01-16T21:41:01.499Z,9.73
2019-01-16T21:43:50.938Z,10.70
2019-01-16T21:46:44.951Z,10.10
2019-01-16T21:49:31.968Z,10.87
2019-01-16T21:52:22.779Z,10.00
2019-01-16T21:55:09.229Z,10.33
2019-01-16T21:58:02.116Z,9.40
2019-01-16T22:00:56.487Z,9.60
2019-01-16T22:03:42.960Z,10.13
2019-01-16T22:06:20.949Z,9.50
2019-01-16T22:09:15.901Z,10.47
2019-01-16T22:12:00.850Z,10.60
2019-01-16T22:14:52.991Z,10.73
2019-01-16T22:17:59.240Z,10.17
2019-01-16T22:20:50.293Z,9.63
2019-01-16T22:23:37.050Z,9.93
2019-01-16T22:26:28.165Z,10.57
2019-01-16T22:29:14.640Z,9.80
2019-01-16T22:32:02.626Z,10.63
2019-01-16T22:34:46.968Z,10.40
2019-01-16T22:37:41.242Z,9.53
2019-01-16T22:40:28.260Z,9.53
2019-01-16T22:43:13.506Z,9.90
2019-01-16T22:46:02.168Z,8.90
2019-01-16T22:48:50.033Z,9.27
2019-01-16T22:51:36.392Z,9.83
2019-01-16T22:54:36.318Z,9.83
2019-01-16T22:57:48.286Z,8.87
2019-01-16T23:00:52.370Z,8.70
2019-01-16T23:03:49.613Z,9.30
2019-01-16T23:06:39.193Z,9.50
2019-01-16T23:09:26.422Z,9.70
2019-01-16T23:12:29.670Z,8.77
2019-01-16T23:15:15.983Z,8.97
2019-01-16T23:18:07.295Z,8.87
2019-01-16T23:20:56.725Z,9.00
2019-01-16T23:23:49.924Z,9.13
2019-01-16T23:26:29.740Z,9.37
2019-01-16T23:29:29.833Z,8.53
2019-01-16T23:32:25.462Z,8.80
2019-01-16T23:35:32.030Z,7.87
2019-01-16T23:38:18.786Z,8.63
2019-01-16T23:41:16.015Z,8.20
2019-01-16T23:44:08.773Z,7.93
2019-01-16T23:46:55.513Z,7.57
2019-01-16T23:49:46.528Z,8.00
2019-01-16T23:52:29.761Z,8.10
2019-01-16T23:55:16.263Z,8.00
2019-01-16T23:57:56.953Z,8.37
